Hlavní strana
METAR-TAF:

METAR-TAF

Letiště :

Golden Triangle Regional Airport

Columbus / West Point / Starkville, Mississippi, Spojené státy americké

zeměpisná šířka: 33-27N, zeměpisná délka: 088-35W, výška: 80 m

Aktuální stav počasí

Zpráva byla vytvořena před 23 minutami, v 10:56 UTC
Jižní vítr 3 kt
Teplota 22°C
Vlhkost vzduchu 94%
Tlak 1020 hPa
Viditelnost: 16.1 km
Skoro jasno ve výšce 100 ft
Oblačno až skoro zataženo ve výšce 7000 ft

METAR: KGTR 241056Z AUTO 18003KT 10SM FEW001 BKN070 22/21 A3013 RMK AO2 SLP208 T02170211

Čas: 06:19 (11:19 UTC)

Předpověď počasí

Zpráva byla vytvořena před 5 hodinami a 57 minutami, v 05:22 UTC
Předpověď platná od 24 v 06 UTC do 25 v 06 UTC
Jižní vítr 3 kt
Viditelnost: 10 km
Jasno

TAF: KGTR 240522Z 2406/2506 17003KT P6SM SKC

Stav a předpovědi počasí z více než 4 000 letišť (zprávy METAR a TAF).

Červené a žluté tečky na mapě představují dostupné meteorologické stanice.

Když kurzor umístíte na tečku, zobrazí se název stanice.

Pak kliknutím zobrazíte stav a předpověď počasí.

Chcete-li změnit mapu, kliknutím na zelené tlačítko se znaménkem +mapu přiblížíte, kliknutím na zelené tlačítko se znaménkem – mapu oddálíte a kliknutím na zelené šipky přejdete na sousední mapy.


METAR-TAF: